RYR84NP LEVC-EGPH
Flight info
| Callsign | RYR84NP |
|---|---|
| Flight time | 2h 25m |
| Altitude | 36000 |
| Route | TATOS DCT TURUV N860 ANETO DCT OBLOC DCT TUPAR UN861 DIKRO UM184 HEMEL T420 TNT UN57 POL UN601 RIBEL DCT INPIP |
| Aircraft | B738/M-SDE3FGILRWY/SB1 |
Departure
| Time | 2026-05-03 22:15 |
|---|---|
| Airport | Valencia Airport (LEVC) |
Arrival
| Time | 2026-05-04 00:40 |
|---|---|
| Airport | Edinburgh Airport (EGPH) |
| Time | Latitude | Longitude | Altitude | Speed | Heading |
|---|---|---|---|---|---|
| 2026-05-03 22:01 | 39.49043 | -0.47334 | 191 ft | 0 kts | 12° |
| 2026-05-03 22:04 | 39.49040 | -0.47335 | 203 ft | 1 kts | 12° |
| 2026-05-03 22:04 | 39.49024 | -0.47341 | 208 ft | 3 kts | 25° |
| 2026-05-03 22:04 | 39.49005 | -0.47352 | 207 ft | 2 kts | 20° |
| 2026-05-03 22:04 | 39.48987 | -0.47359 | 201 ft | 3 kts | 8° |
| 2026-05-03 22:05 | 39.48968 | -0.47360 | 207 ft | 3 kts | 343° |
| 2026-05-03 22:05 | 39.48952 | -0.47349 | 206 ft | 3 kts | 309° |
| 2026-05-03 22:05 | 39.48945 | -0.47337 | 203 ft | 1 kts | 296° |
| 2026-05-03 22:05 | 39.48944 | -0.47334 | 202 ft | 0 kts | 296° |
| 2026-05-03 22:08 | 39.48952 | -0.47355 | 198 ft | 5 kts | 296° |
| 2026-05-03 22:08 | 39.48973 | -0.47412 | 197 ft | 9 kts | 295° |
| 2026-05-03 22:08 | 39.49004 | -0.47491 | 196 ft | 10 kts | 296° |
| 2026-05-03 22:09 | 39.49034 | -0.47571 | 205 ft | 10 kts | 296° |
| 2026-05-03 22:09 | 39.49062 | -0.47650 | 206 ft | 10 kts | 286° |
| 2026-05-03 22:09 | 39.49058 | -0.47733 | 207 ft | 9 kts | 242° |
| 2026-05-03 22:10 | 39.49033 | -0.47894 | 204 ft | 10 kts | 288° |
| 2026-05-03 22:10 | 39.49071 | -0.47999 | 207 ft | 16 kts | 296° |
| 2026-05-03 22:10 | 39.49133 | -0.48162 | 210 ft | 23 kts | 296° |
| 2026-05-03 22:10 | 39.49210 | -0.48364 | 214 ft | 25 kts | 296° |
| 2026-05-03 22:11 | 39.49284 | -0.48558 | 218 ft | 23 kts | 296° |
| 2026-05-03 22:11 | 39.49353 | -0.48740 | 218 ft | 22 kts | 296° |
| 2026-05-03 22:11 | 39.49422 | -0.48919 | 221 ft | 22 kts | 296° |
| 2026-05-03 22:11 | 39.49494 | -0.49109 | 221 ft | 26 kts | 296° |
| 2026-05-03 22:12 | 39.49575 | -0.49322 | 227 ft | 26 kts | 296° |
| 2026-05-03 22:12 | 39.49652 | -0.49521 | 231 ft | 24 kts | 296° |
| 2026-05-03 22:12 | 39.49723 | -0.49709 | 236 ft | 22 kts | 296° |
| 2026-05-03 22:12 | 39.49779 | -0.49859 | 240 ft | 13 kts | 295° |
| 2026-05-03 22:13 | 39.49797 | -0.49940 | 243 ft | 9 kts | 251° |
| 2026-05-03 22:13 | 39.49747 | -0.49985 | 245 ft | 9 kts | 207° |
| 2026-05-03 22:13 | 39.49693 | -0.50020 | 246 ft | 9 kts | 206° |
| 2026-05-03 22:13 | 39.49638 | -0.50013 | 245 ft | 10 kts | 130° |
| 2026-05-03 22:14 | 39.49568 | -0.49834 | 239 ft | 50 kts | 116° |
| 2026-05-03 22:14 | 39.49309 | -0.49154 | 222 ft | 116 kts | 116° |
| 2026-05-03 22:14 | 39.48866 | -0.48001 | 210 ft | 168 kts | 117° |
| 2026-05-03 22:14 | 39.48312 | -0.46632 | 831 ft | 166 kts | 117° |
| 2026-05-03 22:15 | 39.47775 | -0.45321 | 1586 ft | 168 kts | 116° |
| 2026-05-03 22:15 | 39.47161 | -0.43897 | 1880 ft | 197 kts | 127° |
| 2026-05-03 22:15 | 39.45996 | -0.42886 | 2195 ft | 215 kts | 161° |
| 2026-05-03 22:15 | 39.44668 | -0.41979 | 2726 ft | 221 kts | 130° |
| 2026-05-03 22:16 | 39.43965 | -0.40223 | 3439 ft | 223 kts | 115° |
| 2026-05-03 22:16 | 39.43209 | -0.38344 | 3720 ft | 249 kts | 122° |
| 2026-05-03 22:16 | 39.42260 | -0.36368 | 4179 ft | 265 kts | 124° |
| 2026-05-03 22:16 | 39.41231 | -0.34348 | 4866 ft | 272 kts | 126° |
| 2026-05-03 22:17 | 39.40162 | -0.32296 | 5563 ft | 279 kts | 126° |
| 2026-05-03 22:17 | 39.39443 | -0.29937 | 6183 ft | 292 kts | 95° |
| 2026-05-03 22:17 | 39.39823 | -0.27361 | 6852 ft | 297 kts | 60° |
| 2026-05-03 22:17 | 39.41204 | -0.25435 | 7557 ft | 295 kts | 27° |
| 2026-05-03 22:18 | 39.43112 | -0.24723 | 8230 ft | 290 kts | 357° |
| 2026-05-03 22:18 | 39.45132 | -0.24807 | 8920 ft | 294 kts | 357° |
| 2026-05-03 22:18 | 39.47201 | -0.24658 | 9590 ft | 301 kts | 2° |
| 2026-05-03 22:18 | 39.49302 | -0.24367 | 10241 ft | 307 kts | 4° |
| 2026-05-03 22:19 | 39.51492 | -0.23996 | 10460 ft | 329 kts | 5° |
| 2026-05-03 22:19 | 39.53028 | -0.23711 | 10576 ft | 344 kts | 5° |
| 2026-05-03 22:19 | 39.55462 | -0.23235 | 10835 ft | 361 kts | 6° |
| 2026-05-03 22:19 | 39.57969 | -0.22725 | 11382 ft | 368 kts | 6° |
| 2026-05-03 22:20 | 39.60509 | -0.22202 | 12050 ft | 371 kts | 6° |
| 2026-05-03 22:20 | 39.63072 | -0.21674 | 12712 ft | 375 kts | 6° |
| 2026-05-03 22:20 | 39.66516 | -0.20976 | 13595 ft | 381 kts | 5° |
| 2026-05-03 22:20 | 39.69155 | -0.21013 | 14189 ft | 380 kts | 346° |
| 2026-05-03 22:21 | 39.70910 | -0.21441 | 14667 ft | 380 kts | 345° |
| 2026-05-03 22:21 | 39.73477 | -0.22092 | 15350 ft | 383 kts | 345° |
| 2026-05-03 22:21 | 39.76104 | -0.22750 | 16028 ft | 386 kts | 345° |
| 2026-05-03 22:21 | 39.78756 | -0.23397 | 16678 ft | 390 kts | 345° |
| 2026-05-03 22:22 | 39.81440 | -0.24038 | 17328 ft | 394 kts | 345° |
| 2026-05-03 22:22 | 39.84154 | -0.24676 | 17967 ft | 398 kts | 345° |
| 2026-05-03 22:22 | 39.86898 | -0.25316 | 18577 ft | 402 kts | 345° |
| 2026-05-03 22:22 | 39.89666 | -0.25962 | 19081 ft | 407 kts | 345° |
| 2026-05-03 22:23 | 39.92460 | -0.26613 | 19651 ft | 409 kts | 345° |
| 2026-05-03 22:23 | 39.95231 | -0.27260 | 20219 ft | 411 kts | 345° |
| 2026-05-03 22:23 | 39.98056 | -0.27920 | 20763 ft | 414 kts | 345° |
| 2026-05-03 22:23 | 40.00957 | -0.28173 | 21288 ft | 426 kts | 2° |
| 2026-05-03 22:24 | 40.03883 | -0.27363 | 21867 ft | 432 kts | 10° |
| 2026-05-03 22:24 | 40.06809 | -0.26410 | 22391 ft | 435 kts | 11° |
| 2026-05-03 22:24 | 40.09762 | -0.25447 | 22838 ft | 440 kts | 11° |
| 2026-05-03 22:24 | 40.12743 | -0.24484 | 23322 ft | 443 kts | 10° |
| 2026-05-03 22:25 | 40.15747 | -0.23526 | 23772 ft | 446 kts | 10° |
| 2026-05-03 22:25 | 40.18772 | -0.22572 | 24179 ft | 449 kts | 10° |
| 2026-05-03 22:25 | 40.21775 | -0.21632 | 24607 ft | 450 kts | 9° |
| 2026-05-03 22:25 | 40.24831 | -0.20679 | 25025 ft | 453 kts | 9° |
| 2026-05-03 22:26 | 40.27905 | -0.19723 | 25431 ft | 456 kts | 10° |
| 2026-05-03 22:26 | 40.30997 | -0.18761 | 25794 ft | 459 kts | 10° |
| 2026-05-03 22:26 | 40.34113 | -0.17790 | 26188 ft | 462 kts | 10° |
| 2026-05-03 22:26 | 40.37245 | -0.16813 | 26579 ft | 464 kts | 10° |
| 2026-05-03 22:27 | 40.40393 | -0.15829 | 26977 ft | 466 kts | 10° |
| 2026-05-03 22:27 | 40.43559 | -0.14839 | 27360 ft | 468 kts | 10° |
| 2026-05-03 22:27 | 40.46737 | -0.13843 | 27725 ft | 471 kts | 10° |
| 2026-05-03 22:27 | 40.49933 | -0.12842 | 28069 ft | 474 kts | 10° |
| 2026-05-03 22:28 | 40.53111 | -0.11846 | 28353 ft | 478 kts | 10° |
| 2026-05-03 22:28 | 40.56356 | -0.10827 | 28690 ft | 480 kts | 10° |
| 2026-05-03 22:28 | 40.59611 | -0.09803 | 29042 ft | 482 kts | 10° |
| 2026-05-03 22:28 | 40.62880 | -0.08774 | 29380 ft | 484 kts | 10° |
| 2026-05-03 22:29 | 40.66162 | -0.07739 | 29678 ft | 486 kts | 10° |
| 2026-05-03 22:29 | 40.69460 | -0.06699 | 29982 ft | 489 kts | 10° |
| 2026-05-03 22:29 | 40.72771 | -0.05655 | 30243 ft | 491 kts | 10° |
| 2026-05-03 22:29 | 40.76100 | -0.04602 | 30480 ft | 492 kts | 10° |
| 2026-05-03 22:30 | 40.79436 | -0.03547 | 30752 ft | 493 kts | 9° |
| 2026-05-03 22:30 | 40.82726 | -0.02505 | 31077 ft | 493 kts | 9° |
| 2026-05-03 22:30 | 40.86051 | -0.01449 | 31448 ft | 491 kts | 9° |
| 2026-05-03 22:30 | 40.89364 | -0.00397 | 31870 ft | 488 kts | 9° |
| 2026-05-03 22:31 | 40.92651 | 0.00649 | 32344 ft | 484 kts | 9° |
| 2026-05-03 22:31 | 40.95922 | 0.01690 | 32641 ft | 484 kts | 9° |
| 2026-05-03 22:31 | 40.99204 | 0.02733 | 32857 ft | 486 kts | 9° |
| 2026-05-03 22:31 | 41.02492 | 0.03779 | 33140 ft | 486 kts | 9° |
| 2026-05-03 22:32 | 41.05777 | 0.04826 | 33508 ft | 484 kts | 9° |
| 2026-05-03 22:32 | 41.09049 | 0.05871 | 33865 ft | 483 kts | 9° |
| 2026-05-03 22:32 | 41.12267 | 0.06900 | 34156 ft | 482 kts | 9° |
| 2026-05-03 22:32 | 41.15528 | 0.07942 | 34380 ft | 483 kts | 9° |
| 2026-05-03 22:33 | 41.18796 | 0.08988 | 34584 ft | 484 kts | 9° |
| 2026-05-03 22:33 | 41.22067 | 0.10036 | 34851 ft | 483 kts | 9° |
| 2026-05-03 22:33 | 41.25324 | 0.11082 | 35150 ft | 481 kts | 9° |
| 2026-05-03 22:33 | 41.28573 | 0.12127 | 35421 ft | 480 kts | 8° |
| 2026-05-03 22:34 | 41.31817 | 0.13170 | 35647 ft | 480 kts | 8° |
| 2026-05-03 22:34 | 41.35061 | 0.14213 | 35895 ft | 480 kts | 8° |
| 2026-05-03 22:34 | 41.38300 | 0.15257 | 36166 ft | 478 kts | 9° |
| 2026-05-03 22:34 | 41.41528 | 0.16298 | 36452 ft | 477 kts | 8° |
| 2026-05-03 22:35 | 41.44703 | 0.17324 | 36693 ft | 476 kts | 8° |
| 2026-05-03 22:35 | 41.47920 | 0.18363 | 36908 ft | 476 kts | 8° |
| 2026-05-03 22:35 | 41.51138 | 0.19404 | 37135 ft | 475 kts | 8° |
| 2026-05-03 22:35 | 41.54348 | 0.20443 | 37356 ft | 475 kts | 8° |
| 2026-05-03 22:36 | 41.57555 | 0.21483 | 37583 ft | 474 kts | 8° |
| 2026-05-03 22:36 | 41.60756 | 0.22521 | 37803 ft | 473 kts | 8° |
| 2026-05-03 22:36 | 41.63950 | 0.23559 | 38018 ft | 472 kts | 8° |
| 2026-05-03 22:37 | 41.70332 | 0.25633 | 38022 ft | 476 kts | 8° |
| 2026-05-03 22:37 | 41.76750 | 0.27726 | 38003 ft | 473 kts | 8° |
| 2026-05-03 22:38 | 41.83118 | 0.29808 | 38021 ft | 470 kts | 8° |
| 2026-05-03 22:38 | 41.89468 | 0.31886 | 38025 ft | 469 kts | 8° |
| 2026-05-03 22:39 | 41.95821 | 0.33969 | 38025 ft | 470 kts | 8° |
| 2026-05-03 22:39 | 42.02141 | 0.36045 | 38024 ft | 472 kts | 8° |
| 2026-05-03 22:40 | 42.08543 | 0.38153 | 38027 ft | 475 kts | 9° |
| 2026-05-03 22:40 | 42.14974 | 0.40276 | 38018 ft | 477 kts | 9° |
| 2026-05-03 22:41 | 42.21432 | 0.42413 | 38036 ft | 479 kts | 9° |
| 2026-05-03 22:41 | 42.27915 | 0.44562 | 38029 ft | 481 kts | 9° |
| 2026-05-03 22:42 | 42.34375 | 0.46708 | 38018 ft | 482 kts | 9° |
| 2026-05-03 22:42 | 42.40898 | 0.48682 | 38038 ft | 479 kts | 6° |
| 2026-05-03 22:43 | 42.47455 | 0.50289 | 38027 ft | 479 kts | 5° |
| 2026-05-03 22:43 | 42.53998 | 0.51908 | 38036 ft | 477 kts | 6° |
| 2026-05-03 22:44 | 42.60483 | 0.53572 | 38014 ft | 477 kts | 6° |
| 2026-05-03 22:44 | 42.67009 | 0.55109 | 38006 ft | 473 kts | 359° |
| 2026-05-03 22:45 | 42.73456 | 0.54569 | 37987 ft | 458 kts | 341° |
| 2026-05-03 22:45 | 42.79584 | 0.52419 | 37993 ft | 455 kts | 339° |
| 2026-05-03 22:46 | 42.85706 | 0.50194 | 37983 ft | 456 kts | 339° |
| 2026-05-03 22:46 | 42.91802 | 0.48023 | 37972 ft | 456 kts | 339° |
| 2026-05-03 22:47 | 42.97950 | 0.45865 | 37993 ft | 457 kts | 340° |
| 2026-05-03 22:47 | 43.04109 | 0.43709 | 37968 ft | 456 kts | 340° |
| 2026-05-03 22:48 | 43.10274 | 0.41547 | 37974 ft | 459 kts | 340° |
| 2026-05-03 22:48 | 43.16471 | 0.39367 | 37973 ft | 461 kts | 340° |
| 2026-05-03 22:49 | 43.22664 | 0.37183 | 37975 ft | 464 kts | 340° |
| 2026-05-03 22:49 | 43.28935 | 0.34968 | 37966 ft | 466 kts | 340° |
| 2026-05-03 22:50 | 43.35229 | 0.32741 | 37956 ft | 468 kts | 340° |
| 2026-05-03 22:50 | 43.41533 | 0.30505 | 37956 ft | 468 kts | 340° |
| 2026-05-03 22:51 | 43.47842 | 0.28263 | 37957 ft | 468 kts | 340° |
| 2026-05-03 22:51 | 43.54106 | 0.26031 | 37953 ft | 468 kts | 340° |
| 2026-05-03 22:52 | 43.60393 | 0.23787 | 37956 ft | 466 kts | 340° |
| 2026-05-03 22:52 | 43.66669 | 0.21542 | 37963 ft | 465 kts | 340° |
| 2026-05-03 22:53 | 43.72925 | 0.19299 | 37953 ft | 464 kts | 340° |
| 2026-05-03 22:53 | 43.79124 | 0.17071 | 37950 ft | 463 kts | 340° |
| 2026-05-03 22:54 | 43.85352 | 0.14827 | 37965 ft | 462 kts | 340° |
| 2026-05-03 22:54 | 43.91578 | 0.12579 | 37956 ft | 462 kts | 340° |
| 2026-05-03 22:55 | 43.97801 | 0.10328 | 37953 ft | 462 kts | 340° |
| 2026-05-03 22:55 | 44.03985 | 0.08086 | 37977 ft | 463 kts | 340° |
| 2026-05-03 22:56 | 44.10224 | 0.05819 | 37966 ft | 464 kts | 340° |
| 2026-05-03 22:56 | 44.16481 | 0.03541 | 37961 ft | 465 kts | 340° |
| 2026-05-03 22:57 | 44.22753 | 0.01252 | 37970 ft | 467 kts | 340° |
| 2026-05-03 22:57 | 44.29005 | -0.01034 | 37966 ft | 468 kts | 341° |
| 2026-05-03 22:58 | 44.35321 | -0.03349 | 37960 ft | 470 kts | 341° |
| 2026-05-03 22:58 | 44.41653 | -0.05675 | 37957 ft | 471 kts | 341° |
| 2026-05-03 22:59 | 44.47999 | -0.08011 | 37964 ft | 473 kts | 341° |
| 2026-05-03 22:59 | 44.54321 | -0.10344 | 37957 ft | 473 kts | 341° |
| 2026-05-03 23:00 | 44.60695 | -0.12701 | 37979 ft | 474 kts | 341° |
| 2026-05-03 23:00 | 44.67074 | -0.15065 | 37966 ft | 474 kts | 341° |
| 2026-05-03 23:01 | 44.73532 | -0.17105 | 37959 ft | 477 kts | 344° |
| 2026-05-03 23:01 | 44.80007 | -0.18861 | 37961 ft | 477 kts | 345° |
| 2026-05-03 23:02 | 44.86518 | -0.20635 | 37963 ft | 476 kts | 344° |
| 2026-05-03 23:02 | 44.93015 | -0.22457 | 37961 ft | 475 kts | 344° |
| 2026-05-03 23:03 | 44.99497 | -0.24302 | 37973 ft | 475 kts | 344° |
| 2026-05-03 23:03 | 45.05972 | -0.26154 | 37971 ft | 475 kts | 344° |
| 2026-05-03 23:04 | 45.12404 | -0.27996 | 37967 ft | 475 kts | 344° |
| 2026-05-03 23:04 | 45.18876 | -0.29852 | 37968 ft | 474 kts | 344° |
| 2026-05-03 23:05 | 45.25349 | -0.31713 | 37965 ft | 475 kts | 344° |
| 2026-05-03 23:05 | 45.31825 | -0.33578 | 37959 ft | 475 kts | 344° |
| 2026-05-03 23:06 | 45.38265 | -0.35438 | 37966 ft | 475 kts | 344° |
| 2026-05-03 23:06 | 45.44748 | -0.37314 | 37984 ft | 476 kts | 344° |
| 2026-05-03 23:07 | 45.51240 | -0.39197 | 37983 ft | 476 kts | 344° |
| 2026-05-03 23:07 | 45.57734 | -0.41085 | 37993 ft | 476 kts | 344° |
| 2026-05-03 23:08 | 45.64186 | -0.42966 | 37996 ft | 477 kts | 344° |
| 2026-05-03 23:08 | 45.70690 | -0.44866 | 37961 ft | 477 kts | 344° |
| 2026-05-03 23:09 | 45.77200 | -0.46773 | 37962 ft | 477 kts | 344° |
| 2026-05-03 23:09 | 45.83712 | -0.48684 | 37963 ft | 478 kts | 344° |
| 2026-05-03 23:10 | 45.90188 | -0.50590 | 37959 ft | 478 kts | 344° |
| 2026-05-03 23:10 | 45.96705 | -0.52512 | 37965 ft | 478 kts | 344° |
| 2026-05-03 23:11 | 46.03229 | -0.54441 | 37969 ft | 479 kts | 344° |
| 2026-05-03 23:11 | 46.09760 | -0.56377 | 37959 ft | 479 kts | 344° |
| 2026-05-03 23:12 | 46.16291 | -0.58317 | 37958 ft | 479 kts | 344° |
| 2026-05-03 23:12 | 46.22788 | -0.60252 | 37963 ft | 480 kts | 344° |
| 2026-05-03 23:13 | 46.29333 | -0.62206 | 37962 ft | 480 kts | 344° |
| 2026-05-03 23:13 | 46.35879 | -0.64165 | 37962 ft | 481 kts | 344° |
| 2026-05-03 23:14 | 46.42428 | -0.66128 | 37963 ft | 481 kts | 345° |
| 2026-05-03 23:14 | 46.49080 | -0.67557 | 37965 ft | 484 kts | 350° |
| 2026-05-03 23:15 | 46.55743 | -0.68552 | 37954 ft | 485 kts | 350° |
| 2026-05-03 23:15 | 46.62454 | -0.69574 | 37963 ft | 485 kts | 350° |
| 2026-05-03 23:16 | 46.69158 | -0.70674 | 37958 ft | 485 kts | 349° |
| 2026-05-03 23:16 | 46.75859 | -0.71809 | 37956 ft | 484 kts | 349° |
| 2026-05-03 23:17 | 46.82506 | -0.72941 | 37962 ft | 484 kts | 349° |
| 2026-05-03 23:17 | 46.89192 | -0.74079 | 37963 ft | 484 kts | 349° |
| 2026-05-03 23:18 | 46.95879 | -0.75217 | 37965 ft | 483 kts | 349° |
| 2026-05-03 23:18 | 47.02556 | -0.76357 | 37968 ft | 483 kts | 349° |
| 2026-05-03 23:19 | 47.09183 | -0.77491 | 37965 ft | 483 kts | 349° |
| 2026-05-03 23:19 | 47.15858 | -0.78636 | 37964 ft | 482 kts | 349° |
| 2026-05-03 23:20 | 47.22519 | -0.79782 | 37971 ft | 482 kts | 350° |
| 2026-05-03 23:20 | 47.29181 | -0.80931 | 37959 ft | 482 kts | 350° |
| 2026-05-03 23:21 | 47.35836 | -0.82082 | 37961 ft | 481 kts | 350° |
| 2026-05-03 23:21 | 47.42443 | -0.83227 | 38002 ft | 481 kts | 350° |
| 2026-05-03 23:22 | 47.52421 | -0.84962 | 37969 ft | 481 kts | 350° |
| 2026-05-03 23:22 | 47.59088 | -0.85966 | 37965 ft | 482 kts | 352° |
| 2026-05-03 23:23 | 47.65775 | -0.86730 | 37966 ft | 482 kts | 352° |
| 2026-05-03 23:23 | 47.72411 | -0.87482 | 37967 ft | 482 kts | 352° |
| 2026-05-03 23:24 | 47.79091 | -0.88279 | 37960 ft | 481 kts | 352° |
| 2026-05-03 23:24 | 47.85766 | -0.89098 | 37969 ft | 481 kts | 352° |
| 2026-05-03 23:25 | 47.92439 | -0.89923 | 37965 ft | 481 kts | 352° |
| 2026-05-03 23:25 | 47.99114 | -0.90748 | 37966 ft | 481 kts | 352° |
| 2026-05-03 23:26 | 48.05735 | -0.91568 | 37970 ft | 481 kts | 352° |
| 2026-05-03 23:26 | 48.12400 | -0.92395 | 37963 ft | 480 kts | 352° |
| 2026-05-03 23:27 | 48.19057 | -0.93223 | 37966 ft | 480 kts | 352° |
| 2026-05-03 23:27 | 48.25711 | -0.94053 | 37967 ft | 480 kts | 352° |
| 2026-05-03 23:28 | 48.32312 | -0.94879 | 37960 ft | 479 kts | 352° |
| 2026-05-03 23:28 | 48.38957 | -0.95712 | 37959 ft | 479 kts | 352° |
| 2026-05-03 23:29 | 48.45595 | -0.96546 | 37968 ft | 479 kts | 352° |
| 2026-05-03 23:29 | 48.52235 | -0.97384 | 37966 ft | 479 kts | 352° |
| 2026-05-03 23:30 | 48.58826 | -0.98216 | 37961 ft | 479 kts | 352° |
| 2026-05-03 23:30 | 48.65463 | -0.99058 | 37976 ft | 478 kts | 353° |
| 2026-05-03 23:31 | 48.72094 | -0.99900 | 37959 ft | 479 kts | 353° |
| 2026-05-03 23:31 | 48.78741 | -1.00747 | 37961 ft | 479 kts | 353° |
| 2026-05-03 23:32 | 48.85385 | -1.01595 | 37964 ft | 479 kts | 353° |
| 2026-05-03 23:32 | 48.91986 | -1.02441 | 37965 ft | 479 kts | 353° |
| 2026-05-03 23:33 | 48.98629 | -1.03294 | 37966 ft | 479 kts | 353° |
| 2026-05-03 23:33 | 49.05275 | -1.04149 | 37964 ft | 479 kts | 353° |
| 2026-05-03 23:34 | 49.11920 | -1.05007 | 37969 ft | 480 kts | 353° |
| 2026-05-03 23:34 | 49.18528 | -1.05863 | 37957 ft | 480 kts | 353° |
| 2026-05-03 23:35 | 49.25173 | -1.06725 | 37967 ft | 479 kts | 353° |
| 2026-05-03 23:35 | 49.31816 | -1.07590 | 37963 ft | 479 kts | 353° |
| 2026-05-03 23:36 | 49.38458 | -1.08456 | 37964 ft | 479 kts | 353° |
| 2026-05-03 23:36 | 49.45095 | -1.09325 | 37959 ft | 478 kts | 353° |
| 2026-05-03 23:37 | 49.51674 | -1.10188 | 37959 ft | 478 kts | 353° |
| 2026-05-03 23:37 | 49.58299 | -1.11020 | 37959 ft | 478 kts | 356° |
| 2026-05-03 23:38 | 49.64942 | -1.10399 | 37973 ft | 479 kts | 5° |
| 2026-05-03 23:38 | 49.71566 | -1.09309 | 37970 ft | 478 kts | 4° |
| 2026-05-03 23:39 | 49.78151 | -1.08377 | 37974 ft | 478 kts | 4° |
| 2026-05-03 23:39 | 49.84776 | -1.07481 | 37961 ft | 478 kts | 4° |
| 2026-05-03 23:40 | 49.91396 | -1.06572 | 37958 ft | 477 kts | 4° |
| 2026-05-03 23:40 | 49.98011 | -1.05659 | 37966 ft | 477 kts | 4° |
| 2026-05-03 23:41 | 50.04621 | -1.04745 | 37963 ft | 477 kts | 4° |
| 2026-05-03 23:41 | 50.11187 | -1.03832 | 37965 ft | 477 kts | 4° |
| 2026-05-03 23:42 | 50.17793 | -1.02911 | 37964 ft | 477 kts | 4° |
| 2026-05-03 23:42 | 50.24402 | -1.01987 | 37960 ft | 477 kts | 4° |
| 2026-05-03 23:43 | 50.31015 | -1.01060 | 37959 ft | 477 kts | 4° |
| 2026-05-03 23:43 | 50.37625 | -1.00132 | 37959 ft | 477 kts | 4° |
| 2026-05-03 23:44 | 50.44193 | -0.99208 | 37969 ft | 477 kts | 4° |
| 2026-05-03 23:44 | 50.50816 | -0.98273 | 37956 ft | 478 kts | 4° |
| 2026-05-03 23:45 | 50.57440 | -0.97336 | 37960 ft | 478 kts | 4° |
| 2026-05-03 23:45 | 50.64070 | -0.96395 | 37952 ft | 478 kts | 4° |
| 2026-05-03 23:46 | 50.70651 | -0.95458 | 37961 ft | 478 kts | 4° |
| 2026-05-03 23:46 | 50.77282 | -0.94511 | 37959 ft | 478 kts | 4° |
| 2026-05-03 23:47 | 50.83860 | -0.93064 | 37938 ft | 479 kts | 15° |
| 2026-05-03 23:47 | 50.90205 | -0.89812 | 37953 ft | 479 kts | 18° |
| 2026-05-03 23:48 | 50.96521 | -0.86403 | 37949 ft | 480 kts | 18° |
| 2026-05-03 23:48 | 51.02813 | -0.83072 | 37947 ft | 480 kts | 17° |
| 2026-05-03 23:49 | 51.09154 | -0.79763 | 37942 ft | 480 kts | 17° |
| 2026-05-03 23:49 | 51.15496 | -0.76459 | 37939 ft | 480 kts | 17° |
| 2026-05-03 23:50 | 51.20769 | -0.73703 | 37943 ft | 480 kts | 17° |
| 2026-05-03 23:50 | 51.28182 | -0.69813 | 37939 ft | 480 kts | 17° |
| 2026-05-03 23:51 | 51.34475 | -0.66500 | 37945 ft | 480 kts | 17° |
| 2026-05-03 23:51 | 51.40811 | -0.63154 | 37942 ft | 479 kts | 17° |
| 2026-05-03 23:52 | 51.47138 | -0.59803 | 37939 ft | 479 kts | 17° |
| 2026-05-03 23:52 | 51.53457 | -0.56447 | 37939 ft | 478 kts | 17° |
| 2026-05-03 23:53 | 51.59763 | -0.53087 | 37947 ft | 477 kts | 17° |
| 2026-05-03 23:53 | 51.66064 | -0.49720 | 37938 ft | 477 kts | 17° |
| 2026-05-03 23:54 | 51.72306 | -0.46376 | 37963 ft | 476 kts | 17° |
| 2026-05-03 23:54 | 51.78666 | -0.43623 | 37922 ft | 471 kts | 359° |
| 2026-05-03 23:55 | 51.81896 | -0.44092 | 37964 ft | 465 kts | 344° |
| 2026-05-03 23:55 | 51.84907 | -0.45859 | 37941 ft | 459 kts | 328° |
| 2026-05-03 23:55 | 51.90301 | -0.51324 | 37944 ft | 458 kts | 325° |
| 2026-05-03 23:56 | 51.95708 | -0.56703 | 37939 ft | 460 kts | 326° |
| 2026-05-03 23:56 | 52.01204 | -0.62057 | 37956 ft | 462 kts | 326° |
| 2026-05-03 23:57 | 52.06717 | -0.67454 | 37946 ft | 463 kts | 326° |
| 2026-05-03 23:57 | 52.12242 | -0.72881 | 37954 ft | 465 kts | 326° |
| 2026-05-03 23:58 | 52.17744 | -0.78314 | 37942 ft | 466 kts | 326° |
| 2026-05-03 23:58 | 52.23295 | -0.83809 | 37943 ft | 467 kts | 326° |
| 2026-05-03 23:59 | 52.28854 | -0.89325 | 37958 ft | 468 kts | 326° |
| 2026-05-03 23:59 | 52.34409 | -0.94853 | 37948 ft | 467 kts | 326° |
| 2026-05-04 00:00 | 52.39940 | -1.00375 | 37963 ft | 465 kts | 326° |
| 2026-05-04 00:00 | 52.45410 | -1.05852 | 37938 ft | 462 kts | 326° |
| 2026-05-04 00:01 | 52.50880 | -1.11344 | 37942 ft | 460 kts | 326° |
| 2026-05-04 00:01 | 52.56317 | -1.16820 | 37942 ft | 457 kts | 326° |
| 2026-05-04 00:02 | 52.61720 | -1.22275 | 37937 ft | 455 kts | 326° |
| 2026-05-04 00:02 | 52.67062 | -1.27682 | 37937 ft | 453 kts | 326° |
| 2026-05-04 00:03 | 52.72420 | -1.33122 | 37943 ft | 452 kts | 326° |
| 2026-05-04 00:03 | 52.77778 | -1.38583 | 37999 ft | 452 kts | 326° |
| 2026-05-04 00:04 | 52.83131 | -1.44057 | 37996 ft | 453 kts | 326° |
| 2026-05-04 00:04 | 52.88456 | -1.49517 | 37996 ft | 454 kts | 326° |
| 2026-05-04 00:05 | 52.93829 | -1.55044 | 37993 ft | 455 kts | 327° |
| 2026-05-04 00:05 | 52.99219 | -1.60603 | 37988 ft | 457 kts | 327° |
| 2026-05-04 00:06 | 53.04632 | -1.66179 | 37988 ft | 459 kts | 328° |
| 2026-05-04 00:06 | 53.10464 | -1.70378 | 37993 ft | 461 kts | 339° |
| 2026-05-04 00:07 | 53.16514 | -1.73993 | 37990 ft | 463 kts | 339° |
| 2026-05-04 00:07 | 53.22573 | -1.77660 | 37991 ft | 463 kts | 339° |
| 2026-05-04 00:08 | 53.28615 | -1.81404 | 37995 ft | 464 kts | 338° |
| 2026-05-04 00:08 | 53.34616 | -1.85160 | 38001 ft | 463 kts | 338° |
| 2026-05-04 00:09 | 53.40653 | -1.88952 | 37994 ft | 463 kts | 338° |
| 2026-05-04 00:09 | 53.46679 | -1.92746 | 38005 ft | 462 kts | 338° |
| 2026-05-04 00:10 | 53.52700 | -1.96546 | 38000 ft | 462 kts | 338° |
| 2026-05-04 00:10 | 53.58667 | -2.00324 | 38008 ft | 461 kts | 338° |
| 2026-05-04 00:11 | 53.64664 | -2.04133 | 38008 ft | 460 kts | 338° |
| 2026-05-04 00:11 | 53.70652 | -2.07947 | 38007 ft | 460 kts | 338° |
| 2026-05-04 00:12 | 53.76623 | -2.11803 | 38016 ft | 459 kts | 337° |
| 2026-05-04 00:12 | 53.82488 | -2.15838 | 38006 ft | 458 kts | 336° |
| 2026-05-04 00:13 | 53.88381 | -2.19883 | 38017 ft | 457 kts | 337° |
| 2026-05-04 00:13 | 53.94273 | -2.23917 | 38013 ft | 456 kts | 336° |
| 2026-05-04 00:14 | 54.00148 | -2.27955 | 38029 ft | 455 kts | 337° |
| 2026-05-04 00:14 | 54.06011 | -2.31997 | 38017 ft | 454 kts | 337° |
| 2026-05-04 00:15 | 54.11829 | -2.36020 | 38019 ft | 454 kts | 336° |
| 2026-05-04 00:15 | 54.17677 | -2.40078 | 37776 ft | 457 kts | 336° |
| 2026-05-04 00:16 | 54.20636 | -2.42135 | 37267 ft | 458 kts | 337° |
| 2026-05-04 00:16 | 54.23577 | -2.44184 | 36697 ft | 456 kts | 337° |
| 2026-05-04 00:16 | 54.26506 | -2.46226 | 36119 ft | 454 kts | 336° |
| 2026-05-04 00:16 | 54.29429 | -2.48268 | 35488 ft | 454 kts | 337° |
| 2026-05-04 00:17 | 54.32351 | -2.50313 | 34846 ft | 454 kts | 337° |
| 2026-05-04 00:17 | 54.35268 | -2.52358 | 34204 ft | 453 kts | 337° |
| 2026-05-04 00:17 | 54.38141 | -2.54374 | 33642 ft | 450 kts | 337° |
| 2026-05-04 00:17 | 54.41019 | -2.56397 | 33115 ft | 445 kts | 338° |
| 2026-05-04 00:18 | 54.43861 | -2.58397 | 32660 ft | 439 kts | 338° |
| 2026-05-04 00:18 | 54.46672 | -2.60379 | 32191 ft | 433 kts | 338° |
| 2026-05-04 00:18 | 54.49440 | -2.62334 | 31743 ft | 428 kts | 339° |
| 2026-05-04 00:18 | 54.52177 | -2.64271 | 31296 ft | 423 kts | 339° |
| 2026-05-04 00:19 | 54.54886 | -2.66190 | 30855 ft | 418 kts | 339° |
| 2026-05-04 00:19 | 54.57557 | -2.68084 | 30413 ft | 413 kts | 339° |
| 2026-05-04 00:19 | 54.60200 | -2.69963 | 29956 ft | 408 kts | 341° |
| 2026-05-04 00:19 | 54.62776 | -2.71795 | 29510 ft | 403 kts | 341° |
| 2026-05-04 00:20 | 54.65341 | -2.73622 | 29052 ft | 397 kts | 340° |
| 2026-05-04 00:20 | 54.67875 | -2.75428 | 28615 ft | 391 kts | 340° |
| 2026-05-04 00:20 | 54.70373 | -2.77211 | 28184 ft | 386 kts | 340° |
| 2026-05-04 00:20 | 54.72838 | -2.78973 | 27746 ft | 381 kts | 340° |
| 2026-05-04 00:21 | 54.75274 | -2.80716 | 27306 ft | 377 kts | 340° |
| 2026-05-04 00:21 | 54.77690 | -2.82447 | 26851 ft | 374 kts | 339° |
| 2026-05-04 00:21 | 54.80082 | -2.84164 | 26473 ft | 369 kts | 339° |
| 2026-05-04 00:21 | 54.82394 | -2.85934 | 26344 ft | 359 kts | 334° |
| 2026-05-04 00:22 | 54.84562 | -2.88087 | 25705 ft | 363 kts | 330° |
| 2026-05-04 00:22 | 54.86726 | -2.90379 | 24937 ft | 373 kts | 329° |
| 2026-05-04 00:22 | 54.88955 | -2.92752 | 24227 ft | 379 kts | 329° |
| 2026-05-04 00:22 | 54.91222 | -2.95151 | 23501 ft | 384 kts | 329° |
| 2026-05-04 00:23 | 54.93519 | -2.97561 | 22693 ft | 388 kts | 329° |
| 2026-05-04 00:23 | 54.95842 | -2.99979 | 21891 ft | 391 kts | 329° |
| 2026-05-04 00:23 | 54.98185 | -3.02405 | 21115 ft | 393 kts | 329° |
| 2026-05-04 00:23 | 55.00545 | -3.04838 | 20351 ft | 394 kts | 329° |
| 2026-05-04 00:24 | 55.02911 | -3.07265 | 19611 ft | 396 kts | 329° |
| 2026-05-04 00:24 | 55.05289 | -3.09692 | 18882 ft | 396 kts | 329° |
| 2026-05-04 00:24 | 55.07671 | -3.12109 | 18148 ft | 396 kts | 329° |
| 2026-05-04 00:24 | 55.10027 | -3.14488 | 17346 ft | 396 kts | 329° |
| 2026-05-04 00:25 | 55.12409 | -3.16891 | 16571 ft | 395 kts | 329° |
| 2026-05-04 00:25 | 55.14788 | -3.19297 | 15802 ft | 394 kts | 329° |
| 2026-05-04 00:25 | 55.17156 | -3.21701 | 15055 ft | 393 kts | 329° |
| 2026-05-04 00:25 | 55.19511 | -3.24101 | 14324 ft | 391 kts | 329° |
| 2026-05-04 00:26 | 55.21855 | -3.26504 | 13573 ft | 389 kts | 329° |
| 2026-05-04 00:26 | 55.24183 | -3.28891 | 12785 ft | 387 kts | 329° |
| 2026-05-04 00:26 | 55.26507 | -3.31261 | 11999 ft | 385 kts | 329° |
| 2026-05-04 00:26 | 55.28814 | -3.33616 | 11241 ft | 382 kts | 329° |
| 2026-05-04 00:27 | 55.31077 | -3.35932 | 10570 ft | 370 kts | 329° |
| 2026-05-04 00:27 | 55.33205 | -3.38112 | 10343 ft | 347 kts | 330° |
| 2026-05-04 00:27 | 55.35358 | -3.39709 | 10170 ft | 326 kts | 342° |
| 2026-05-04 00:27 | 55.37475 | -3.40802 | 10031 ft | 308 kts | 343° |
| 2026-05-04 00:28 | 55.39482 | -3.41770 | 9914 ft | 290 kts | 344° |
| 2026-05-04 00:28 | 55.41379 | -3.42670 | 9796 ft | 275 kts | 344° |
| 2026-05-04 00:28 | 55.43187 | -3.43520 | 9569 ft | 265 kts | 344° |
| 2026-05-04 00:28 | 55.44957 | -3.44351 | 9148 ft | 263 kts | 344° |
| 2026-05-04 00:29 | 55.46703 | -3.45174 | 8645 ft | 265 kts | 344° |
| 2026-05-04 00:29 | 55.48490 | -3.46021 | 8143 ft | 267 kts | 344° |
| 2026-05-04 00:29 | 55.50294 | -3.46870 | 7627 ft | 270 kts | 344° |
| 2026-05-04 00:29 | 55.52092 | -3.47710 | 7407 ft | 261 kts | 344° |
| 2026-05-04 00:30 | 55.53813 | -3.48508 | 7207 ft | 252 kts | 344° |
| 2026-05-04 00:30 | 55.55487 | -3.49282 | 6964 ft | 246 kts | 344° |
| 2026-05-04 00:30 | 55.57143 | -3.50046 | 6713 ft | 246 kts | 344° |
| 2026-05-04 00:30 | 55.58798 | -3.50809 | 6457 ft | 246 kts | 344° |
| 2026-05-04 00:31 | 55.60451 | -3.51571 | 6169 ft | 244 kts | 344° |
| 2026-05-04 00:31 | 55.62055 | -3.52313 | 5893 ft | 240 kts | 344° |
| 2026-05-04 00:31 | 55.63653 | -3.53056 | 5693 ft | 235 kts | 344° |
| 2026-05-04 00:31 | 55.65217 | -3.53783 | 5555 ft | 230 kts | 344° |
| 2026-05-04 00:32 | 55.66746 | -3.54496 | 5417 ft | 225 kts | 344° |
| 2026-05-04 00:32 | 55.68241 | -3.55193 | 5283 ft | 220 kts | 344° |
| 2026-05-04 00:32 | 55.69694 | -3.55870 | 5184 ft | 211 kts | 344° |
| 2026-05-04 00:32 | 55.71080 | -3.56515 | 5038 ft | 202 kts | 344° |
| 2026-05-04 00:33 | 55.72413 | -3.57136 | 4893 ft | 195 kts | 344° |
| 2026-05-04 00:33 | 55.75006 | -3.58334 | 4628 ft | 193 kts | 344° |
| 2026-05-04 00:33 | 55.76295 | -3.58923 | 4480 ft | 196 kts | 344° |
| 2026-05-04 00:34 | 55.77626 | -3.59532 | 4291 ft | 199 kts | 344° |
| 2026-05-04 00:34 | 55.78951 | -3.60137 | 4071 ft | 195 kts | 344° |
| 2026-05-04 00:34 | 55.80244 | -3.60725 | 3877 ft | 188 kts | 344° |
| 2026-05-04 00:34 | 55.81486 | -3.61288 | 3702 ft | 180 kts | 344° |
| 2026-05-04 00:35 | 55.82674 | -3.61823 | 3548 ft | 172 kts | 344° |
| 2026-05-04 00:35 | 55.83828 | -3.62340 | 3420 ft | 171 kts | 344° |
| 2026-05-04 00:35 | 55.84980 | -3.62852 | 3294 ft | 170 kts | 346° |
| 2026-05-04 00:35 | 55.86103 | -3.62679 | 3242 ft | 168 kts | 30° |
| 2026-05-04 00:36 | 55.86895 | -3.61085 | 3119 ft | 180 kts | 53° |
| 2026-05-04 00:36 | 55.87596 | -3.59209 | 2858 ft | 182 kts | 56° |
| 2026-05-04 00:36 | 55.88256 | -3.57295 | 2599 ft | 180 kts | 57° |
| 2026-05-04 00:36 | 55.88896 | -3.55392 | 2355 ft | 178 kts | 58° |
| 2026-05-04 00:37 | 55.89525 | -3.53515 | 2116 ft | 175 kts | 58° |
| 2026-05-04 00:37 | 55.90145 | -3.51670 | 1878 ft | 172 kts | 58° |
| 2026-05-04 00:37 | 55.90763 | -3.49831 | 1647 ft | 173 kts | 59° |
| 2026-05-04 00:37 | 55.91376 | -3.48007 | 1404 ft | 168 kts | 59° |
| 2026-05-04 00:38 | 55.91945 | -3.46317 | 1202 ft | 154 kts | 59° |
| 2026-05-04 00:38 | 55.92482 | -3.44722 | 956 ft | 147 kts | 59° |
| 2026-05-04 00:38 | 55.93003 | -3.43162 | 767 ft | 147 kts | 60° |
| 2026-05-04 00:38 | 55.93532 | -3.41578 | 570 ft | 150 kts | 59° |
| 2026-05-04 00:39 | 55.94077 | -3.39969 | 327 ft | 153 kts | 59° |
| 2026-05-04 00:39 | 55.94630 | -3.38343 | 122 ft | 154 kts | 59° |
| 2026-05-04 00:39 | 55.95108 | -3.36929 | 112 ft | 104 kts | 59° |
| 2026-05-04 00:39 | 55.95385 | -3.36114 | 109 ft | 63 kts | 59° |
| 2026-05-04 00:40 | 55.95519 | -3.35717 | 112 ft | 9 kts | 58° |
| 2026-05-04 00:40 | 55.95550 | -3.35629 | 112 ft | 8 kts | 58° |
| 2026-05-04 00:40 | 55.95566 | -3.35532 | 112 ft | 8 kts | 102° |
| 2026-05-04 00:40 | 55.95524 | -3.35468 | 112 ft | 8 kts | 148° |
| 2026-05-04 00:41 | 55.95478 | -3.35417 | 113 ft | 8 kts | 149° |
| 2026-05-04 00:41 | 55.95430 | -3.35416 | 115 ft | 7 kts | 217° |
| 2026-05-04 00:41 | 55.95402 | -3.35491 | 113 ft | 7 kts | 238° |
| 2026-05-04 00:41 | 55.95376 | -3.35566 | 113 ft | 7 kts | 239° |
| 2026-05-04 00:42 | 55.95351 | -3.35642 | 114 ft | 8 kts | 238° |
| 2026-05-04 00:42 | 55.95313 | -3.35752 | 114 ft | 13 kts | 238° |
| 2026-05-04 00:42 | 55.95258 | -3.35911 | 114 ft | 15 kts | 238° |
| 2026-05-04 00:42 | 55.95208 | -3.35985 | 113 ft | 8 kts | 174° |
| 2026-05-04 00:43 | 55.95158 | -3.35937 | 115 ft | 8 kts | 148° |
| 2026-05-04 00:43 | 55.95120 | -3.35867 | 115 ft | 8 kts | 121° |
| 2026-05-04 00:43 | 55.95089 | -3.35789 | 114 ft | 8 kts | 142° |
| 2026-05-04 00:43 | 55.95043 | -3.35798 | 115 ft | 7 kts | 208° |
| 2026-05-04 00:44 | 55.95004 | -3.35854 | 113 ft | 7 kts | 236° |
| 2026-05-04 00:44 | 55.94988 | -3.35933 | 115 ft | 6 kts | 251° |
| 2026-05-04 00:44 | 55.94981 | -3.35974 | 112 ft | 4 kts | 250° |
| 2026-05-04 00:44 | 55.94970 | -3.36027 | 115 ft | 1 kts | 250° |
| 2026-05-04 00:45 | 55.94969 | -3.36030 | 115 ft | 0 kts | 250° |